PAJN/JNU METAR and TAF weather

Enter ICAO airport designator
Station Type Date Time Source
PAJN METAR 2019/11/21 02:53 UTC NOAA

PAJN 210253Z 11019G26KT 8SM -RA FEW017 BKN035 OVC044 07/06 A2978 RMK AO2 PK WND 11026/0253 SLP083 P0006 60020 T00720061 56023


Station Type Date Time Source
PAJN Decoded METAR 2019/11/21 02:53 UTC NOAA

JUNEAU INTERNATIONAL AIRPORT, AK, United States (PAJN) 58-21N 134-34W 8M
Nov 20, 2019 - 09:53 PM EST / 2019.11.21 0253 UTC
Wind: from the ESE (110 degrees) at 22 MPH (19 KT) gusting to 30 MPH (26 KT):0
Visibility: 8 mile(s):0
Sky conditions: overcast
Weather: light rain
Precipitation last hour: 0.06 inches
Temperature: 45.0 F (7.2 C)
Dew Point: 43.0 F (6.1 C)
Relative Humidity: 92%
Pressure (altimeter): 29.78 in. Hg (1008 hPa)
Pressure tendency: 0.07 inches (2.3 hPa) lower than three hours ago
ob: PAJN 210253Z 11019G26KT 8SM -RA FEW017 BKN035 OVC044 07/06 A2978 RMK AO2 PK WND 11026/0253 SLP083 P0006 60020 T00720061 56023
cycle: 3

Station Type Date Time Source
PAJN TAF 2019/11/21 02:48 UTC NOAA

TAF
AMD PAJN 210147Z 2102/2124 11015G25KT 6SM -RA FEW015 SCT035 OVC045 WS020/17035KT
TEMPO 2102/2103 5SM RA BR BKN025 OVC035
FM210300 11022G30KT 5SM RA BR SCT015 OVC025 WS020/15035KT
FM211500 10015KT 5SM -RA BR SCT015 OVC025

Example: see airport list